Time;durP1;ratioP1;P1;durP2;ratioP2;P2;SDS_P1;SDS_P2;PMS_P1;PMS_P2;Temp;Humidity;BMP_temperature;BMP_pressure;BME280_temperature;BME280_humidity;BME280_pressure;Samples;Min_cycle;Max_cycle;Signal;HPM_P1;HPM_P2
2022/09/25 00:00:20;;;;;;;911.72;849.28;;;;;;;16.08;55.26;100833.63;694902;28;45260;-62
2022/09/25 00:00:42;;;;;;;910.97;848.50;;;;;;;16.09;55.14;100831.75;693967;28;69115;-62
2022/09/25 00:01:06;;;;;;;892.65;830.72;;;;;;;16.09;55.34;100826.28;694934;28;45109;-63
2022/09/25 00:01:29;;;;;;;897.55;835.00;;;;;;;16.08;55.09;100833.63;692502;28;14379;-62
2022/09/25 00:01:50;;;;;;;888.72;826.95;;;;;;;16.09;55.15;100826.28;690714;28;69410;-62
2022/09/25 00:02:15;;;;;;;884.75;823.08;;;;;;;16.09;55.14;100834.47;695513;28;22413;-62
2022/09/25 00:02:36;;;;;;;893.03;830.67;;;;;;;16.09;55.17;100837.19;690258;28;90783;-62
2022/09/25 00:02:58;;;;;;;908.92;846.50;;;;;;;16.10;55.26;100833.41;692704;28;21706;-62
2022/09/25 00:03:21;;;;;;;901.70;839.50;;;;;;;16.09;55.25;100829.00;693603;28;21593;-62
2022/09/25 00:03:42;;;;;;;905.17;842.90;;;;;;;16.09;55.15;100827.13;693003;28;92272;-62
2022/09/25 00:04:04;;;;;;;904.63;842.45;;;;;;;16.09;55.27;100831.75;695547;28;22416;-62
2022/09/25 00:04:25;;;;;;;902.05;839.97;;;;;;;16.09;55.22;100831.75;695963;28;2000;-62
2022/09/25 00:04:46;;;;;;;898.58;836.58;;;;;;;16.09;55.09;100823.56;694921;28;44385;-62
2022/09/25 00:05:09;;;;;;;909.08;846.72;;;;;;;16.09;55.23;100835.28;695589;28;22419;-62
2022/09/25 00:05:30;;;;;;;897.72;835.65;;;;;;;16.08;55.21;100828.19;694645;28;44400;-63
2022/09/25 00:06:02;;;;;;;885.42;823.78;;;;;;;16.09;55.10;100831.75;695064;28;45272;-63
2022/09/25 00:06:27;;;;;;;900.63;838.28;;;;;;;16.09;54.90;100837.19;693332;28;159393;-62
2022/09/25 00:06:48;;;;;;;906.88;844.70;;;;;;;16.09;55.19;100831.75;694796;28;114940;-62
2022/09/25 00:07:09;;;;;;;902.65;840.35;;;;;;;16.08;54.99;100832.78;696710;28;24394;-62
2022/09/25 00:07:30;;;;;;;906.88;844.60;;;;;;;16.08;55.25;100836.34;695166;28;23464;-62
2022/09/25 00:07:52;;;;;;;918.78;856.17;;;;;;;16.08;55.15;100830.06;695404;28;22255;-62
2022/09/25 00:08:15;;;;;;;926.90;863.95;;;;;;;16.08;55.25;100832.78;694737;28;46242;-62
2022/09/25 00:08:36;;;;;;;918.72;856.05;;;;;;;16.08;55.12;100832.78;693661;28;69264;-63
2022/09/25 00:08:58;;;;;;;911.80;849.38;;;;;;;16.07;55.11;100831.94;695588;28;22393;-63
2022/09/25 00:09:22;;;;;;;901.35;839.20;;;;;;;16.08;55.34;100832.78;694332;28;44447;-63
2022/09/25 00:09:44;;;;;;;906.75;844.47;;;;;;;16.07;55.42;100829.22;693314;28;92300;-63
2022/09/25 00:10:06;;;;;;;913.42;851.03;;;;;;;16.07;55.54;100833.84;694902;28;46300;-63
2022/09/25 00:10:27;;;;;;;908.53;846.30;;;;;;;16.06;55.60;100827.53;694743;28;46813;-63
2022/09/25 00:10:50;;;;;;;903.65;841.53;;;;;;;16.06;55.36;100832.16;694865;28;46479;-63
2022/09/25 00:11:13;;;;;;;909.97;847.63;;;;;;;16.05;55.66;100831.34;692230;28;46347;-63
2022/09/25 00:11:37;;;;;;;915.10;852.50;;;;;;;16.05;55.68;100825.88;691210;28;70106;-63
2022/09/25 00:11:58;;;;;;;914.05;851.55;;;;;;;16.06;55.44;100822.09;689970;28;89895;-63
2022/09/25 00:12:19;;;;;;;895.42;833.53;;;;;;;16.04;55.66;100827.75;692918;28;22409;-63
2022/09/25 00:12:41;;;;;;;892.53;830.65;;;;;;;16.06;55.34;100829.44;694573;28;22411;-62
2022/09/25 00:13:03;;;;;;;904.05;841.90;;;;;;;16.06;55.54;100823.97;694897;28;46078;-63
2022/09/25 00:13:24;;;;;;;908.45;846.28;;;;;;;16.06;55.41;100821.25;695888;28;15849;-63
2022/09/25 00:13:46;;;;;;;892.28;830.45;;;;;;;16.06;55.53;100824.81;694627;28;46273;-63
2022/09/25 00:14:09;;;;;;;894.13;832.30;;;;;;;16.06;55.50;100821.25;695765;28;22210;-63
2022/09/25 00:14:30;;;;;;;914.00;851.53;;;;;;;16.04;55.17;100825.03;693908;28;69167;-63
2022/09/25 00:14:52;;;;;;;907.50;845.30;;;;;;;16.04;55.48;100826.91;694894;28;46371;-63
2022/09/25 00:15:13;;;;;;;918.30;855.78;;;;;;;16.04;55.33;100822.31;695744;28;23716;-63
2022/09/25 00:15:36;;;;;;;906.85;844.60;;;;;;;16.05;55.50;100820.44;695562;28;21547;-63
2022/09/25 00:15:58;;;;;;;911.03;848.55;;;;;;;16.06;55.27;100823.97;695746;28;22042;-63
2022/09/25 00:16:21;;;;;;;901.88;839.80;;;;;;;16.05;55.57;100825.88;695339;28;44380;-63
2022/09/25 00:16:42;;;;;;;902.88;840.67;;;;;;;16.03;55.63;100817.91;695951;28;92360;-63
2022/09/25 00:17:04;;;;;;;900.50;838.60;;;;;;;16.03;55.47;100827.97;695227;28;22416;-63
2022/09/25 00:17:25;;;;;;;895.03;833.30;;;;;;;16.02;55.30;100818.13;694628;28;46127;-63
2022/09/25 00:17:46;;;;;;;892.13;830.58;;;;;;;16.03;55.61;100825.22;695500;28;22392;-63
2022/09/25 00:18:08;;;;;;;899.90;838.15;;;;;;;16.03;55.53;100817.06;695798;28;21397;-63
2022/09/25 00:19:50;;;;;;;864.50;803.40;;;;;;;16.03;55.42;100828.81;691507;28;138341;-63
2022/09/25 00:20:13;;;;;;;830.40;770.45;;;;;;;16.02;55.69;100818.97;695740;28;23410;-63
2022/09/25 00:20:36;;;;;;;847.65;787.20;;;;;;;16.02;55.62;100826.31;694533;28;46397;-64
2022/09/25 00:20:59;;;;;;;853.65;792.92;;;;;;;16.00;55.68;100823.78;690760;28;90354;-63
2022/09/25 00:21:20;;;;;;;847.50;787.10;;;;;;;16.00;55.44;100826.50;693024;28;69438;-63
2022/09/25 00:21:42;;;;;;;847.63;787.13;;;;;;;16.00;55.56;100820.22;695602;28;22374;-63
2022/09/25 00:22:03;;;;;;;862.10;801.17;;;;;;;15.99;55.69;100822.09;694202;28;45248;-63
2022/09/25 00:22:26;;;;;;;871.88;810.72;;;;;;;16.01;55.80;100816.44;696264;28;1433;-63
2022/09/25 00:22:48;;;;;;;877.25;816.00;;;;;;;16.00;55.49;100817.47;694150;28;68969;-63
2022/09/25 00:23:09;;;;;;;882.70;821.28;;;;;;;16.01;55.39;100819.16;695572;28;22388;-63
2022/09/25 00:23:30;;;;;;;894.80;833.03;;;;;;;16.00;55.56;100817.47;694885;28;44138;-63
2022/09/25 00:23:53;;;;;;;899.15;837.20;;;;;;;16.00;55.46;100820.22;695556;28;22182;-63
2022/09/25 00:24:14;;;;;;;900.78;838.80;;;;;;;15.99;55.51;100818.56;694049;28;67388;-63
2022/09/25 00:24:35;;;;;;;889.00;827.42;;;;;;;15.99;55.71;100818.56;695632;28;22400;-64
2022/09/25 00:24:56;;;;;;;874.22;813.13;;;;;;;15.99;55.48;100821.28;695781;28;22366;-62
2022/09/25 00:25:19;;;;;;;895.22;833.42;;;;;;;15.98;55.66;100819.59;694827;28;44352;-63
2022/09/25 00:25:41;;;;;;;894.88;833.05;;;;;;;15.97;55.30;100818.75;694863;28;46484;-63
2022/09/25 00:26:04;;;;;;;893.45;831.58;;;;;;;15.98;55.67;100816.88;694852;28;45234;-63
2022/09/25 00:26:27;;;;;;;910.15;847.83;;;;;;;15.97;55.52;100824.22;694054;28;69582;-63
2022/09/25 00:26:48;;;;;;;912.78;850.42;;;;;;;15.96;55.71;100813.53;695780;28;69138;-63
2022/09/25 00:27:09;;;;;;;860.97;799.80;;;;;;;15.97;55.44;100817.91;697697;28;21561;-63
2022/09/25 00:27:32;;;;;;;829.80;769.83;;;;;;;15.97;55.39;100815.19;696759;28;45234;-63
2022/09/25 00:27:53;;;;;;;841.03;780.90;;;;;;;15.96;55.58;100817.06;694294;28;45288;-62
2022/09/25 00:28:14;;;;;;;858.65;797.95;;;;;;;15.97;55.67;100815.19;695373;28;23500;-63
2022/09/25 00:28:37;;;;;;;865.80;804.85;;;;;;;15.95;55.41;100815.38;694529;28;45358;-63
2022/09/25 00:29:00;;;;;;;880.72;819.25;;;;;;;15.96;55.63;100813.53;694549;28;44375;-63
2022/09/25 00:29:21;;;;;;;874.70;813.58;;;;;;;15.96;55.64;100819.81;693863;28;67381;-63
2022/09/25 00:29:42;;;;;;;879.75;818.38;;;;;;;15.96;55.55;100805.34;695561;28;21521;-63
2022/09/25 00:30:04;;;;;;;883.78;822.33;;;;;;;15.96;55.76;100818.97;695735;28;21267;-62
2022/09/25 00:30:27;;;;;;;891.72;830.03;;;;;;;15.96;55.58;100813.53;694116;28;60424;-64
2022/09/25 00:30:49;;;;;;;899.17;837.25;;;;;;;15.96;55.50;100808.91;694908;28;44383;-63
2022/09/25 00:31:14;;;;;;;895.85;834.08;;;;;;;15.95;55.71;100807.22;694931;28;44539;-63
2022/09/25 00:31:35;;;;;;;926.13;863.30;;;;;;;15.97;55.81;100815.19;691982;28;115306;-63
2022/09/25 00:31:57;;;;;;;889.45;827.72;;;;;;;15.96;55.87;100808.91;695010;28;23202;-63
2022/09/25 00:32:18;;;;;;;826.40;766.50;;;;;;;15.94;55.78;100811.00;693365;28;67405;-62
2022/09/25 00:32:39;;;;;;;829.22;769.20;;;;;;;15.96;55.50;100810.81;695593;28;22404;-62
2022/09/25 00:33:01;;;;;;;855.83;795.15;;;;;;;15.95;55.77;100811.84;698123;28;19891;-62
2022/09/25 00:33:22;;;;;;;883.30;821.78;;;;;;;15.94;55.71;100805.56;697890;28;22402;-63
2022/09/25 00:33:44;;;;;;;911.38;848.95;;;;;;;15.94;55.75;100811.00;697307;28;44434;-62
2022/09/25 00:34:05;;;;;;;872.92;811.72;;;;;;;15.93;56.01;100806.59;697397;28;46274;-63
2022/09/25 00:34:27;;;;;;;826.50;766.60;;;;;;;15.93;55.60;100808.50;698066;28;21560;-63
2022/09/25 00:34:48;;;;;;;840.40;780.05;;;;;;;15.93;55.88;100808.50;697677;28;24393;-63
2022/09/25 00:35:10;;;;;;;862.38;801.45;;;;;;;15.93;55.87;100803.06;695835;28;22461;-63
2022/09/25 00:35:32;;;;;;;884.75;823.10;;;;;;;15.90;56.08;100795.31;693887;28;67508;-62
2022/09/25 00:35:53;;;;;;;912.40;849.88;;;;;;;15.92;55.99;100804.09;694848;28;45242;-63
2022/09/25 00:36:14;;;;;;;921.65;859.03;;;;;;;15.93;55.93;100800.31;695578;28;23481;-63
2022/09/25 00:36:37;;;;;;;919.22;856.55;;;;;;;15.92;55.68;100806.81;695502;28;23456;-63
2022/09/25 00:36:58;;;;;;;910.45;847.88;;;;;;;15.92;55.99;100809.53;693653;28;46325;-63
2022/09/25 00:37:19;;;;;;;906.55;844.05;;;;;;;15.92;56.07;100809.53;694621;28;43926;-63
2022/09/25 00:37:41;;;;;;;930.25;867.20;;;;;;;15.91;56.23;100808.72;695489;28;21526;-61
2022/09/25 00:38:02;;;;;;;919.88;857.30;;;;;;;15.91;56.37;100803.25;692240;28;23481;-63
2022/09/25 00:38:24;;;;;;;905.10;842.97;;;;;;;15.91;56.20;100799.69;692539;28;22444;-63
2022/09/25 00:38:47;;;;;;;889.47;827.92;;;;;;;15.90;56.08;100804.31;690923;28;69520;-63
2022/09/25 00:39:08;;;;;;;902.05;840.17;;;;;;;15.91;56.11;100803.25;691879;28;67468;-63
2022/09/25 00:39:29;;;;;;;907.28;845.10;;;;;;;15.90;56.19;100804.31;692572;28;23451;-63
2022/09/25 00:39:52;;;;;;;923.72;860.95;;;;;;;15.91;56.52;100802.41;692781;28;21534;-63
2022/09/25 00:40:13;;;;;;;923.15;860.38;;;;;;;15.91;56.61;100796.94;692651;28;46421;-63
2022/09/25 00:40:44;;;;;;;918.95;856.25;;;;;;;15.90;56.17;100798.84;694191;28;61646;-63
2022/09/25 00:41:06;;;;;;;930.50;867.42;;;;;;;15.90;56.38;100800.75;695631;28;21504;-63
2022/09/25 00:41:30;;;;;;;911.78;849.42;;;;;;;15.91;56.47;100796.94;694038;28;69386;-63
2022/09/25 00:41:52;;;;;;;900.95;838.90;;;;;;;15.90;56.33;100798.03;692402;28;92332;-63
2022/09/25 00:42:13;;;;;;;905.45;843.22;;;;;;;15.89;56.22;100802.63;694874;28;44363;-63
2022/09/25 00:42:35;;;;;;;893.17;831.42;;;;;;;15.89;56.41;100802.63;695497;28;22417;-63
2022/09/25 00:42:56;;;;;;;898.00;836.03;;;;;;;15.89;56.48;100799.88;694913;28;46670;-63
2022/09/25 00:43:36;;;;;;;896.72;834.83;;;;;;;15.88;56.24;100791.94;695567;28;21544;-63
2022/09/25 00:43:59;;;;;;;888.35;826.58;;;;;;;15.89;56.23;100799.88;691580;28;137530;-63
2022/09/25 00:44:56;;;;;;;927.08;864.13;;;;;;;15.89;56.39;100797.16;694215;28;69440;-63
2022/09/25 00:45:19;;;;;;;914.30;851.88;;;;;;;15.90;56.52;100798.03;694088;28;137719;-63
2022/09/25 00:45:41;;;;;;;911.92;849.70;;;;;;;15.88;56.45;100795.50;696820;28;67442;-63
2022/09/25 00:46:07;;;;;;;909.00;846.80;;;;;;;15.89;56.58;100799.06;696841;28;69537;-63
2022/09/25 00:46:32;;;;;;;903.72;841.63;;;;;;;15.90;56.43;100792.56;694126;28;136524;-63
2022/09/25 00:46:53;;;;;;;912.90;850.40;;;;;;;15.89;56.83;100797.16;694700;28;90750;-63
2022/09/25 00:47:17;;;;;;;929.00;865.80;;;;;;;15.90;56.69;100800.75;698371;28;23396;-63
2022/09/25 00:47:52;;;;;;;923.05;860.28;;;;;;;15.89;56.71;100794.44;695160;28;114592;-62
2022/09/25 00:48:15;;;;;;;927.35;864.55;;;;;;;15.90;56.44;100792.56;694295;28;135966;-63
2022/09/25 00:48:36;;;;;;;947.67;884.17;;;;;;;15.90;56.59;100798.84;694607;28;46363;-63
2022/09/25 00:49:00;;;;;;;938.58;875.50;;;;;;;15.89;56.57;100793.63;694789;28;46333;-63
2022/09/25 00:49:22;;;;;;;918.13;855.73;;;;;;;15.90;56.57;100795.31;693243;28;92342;-63
2022/09/25 00:49:44;;;;;;;921.28;858.75;;;;;;;15.90;56.71;100796.13;694012;28;69266;-63
2022/09/25 00:50:15;;;;;;;925.13;862.33;;;;;;;15.89;56.73;100799.88;697416;28;21485;-63
2022/09/25 00:50:38;;;;;;;920.80;858.15;;;;;;;15.90;56.60;100807.03;694294;28;136024;-63
2022/09/25 00:51:00;;;;;;;914.15;851.75;;;;;;;15.89;56.42;100797.16;696740;28;68325;-63
2022/09/25 00:51:27;;;;;;;916.42;854.03;;;;;;;15.90;56.34;100798.03;700281;28;41351;-63
2022/09/25 00:51:54;;;;;;;923.80;861.10;;;;;;;15.90;56.37;100798.84;695922;28;137917;-63
2022/09/25 00:52:15;;;;;;;933.85;870.85;;;;;;;15.91;56.63;100802.41;696853;28;137692;-63
2022/09/25 00:52:36;;;;;;;921.85;859.22;;;;;;;15.90;56.65;100798.84;700902;28;23470;-63
2022/09/25 00:53:02;;;;;;;912.65;850.22;;;;;;;15.90;56.50;100804.31;700894;28;21438;-63
2022/09/25 00:53:27;;;;;;;912.50;850.17;;;;;;;15.90;56.53;100793.41;695904;28;95744;-62
2022/09/25 00:53:49;;;;;;;920.65;857.97;;;;;;;15.89;56.57;100791.72;695072;28;115561;-63
2022/09/25 00:54:14;;;;;;;933.47;870.42;;;;;;;15.90;56.78;100801.56;698353;28;22362;-63
2022/09/25 00:54:37;;;;;;;915.53;853.03;;;;;;;15.89;56.36;100802.63;694312;28;138434;-63
2022/09/25 00:55:04;;;;;;;904.20;842.03;;;;;;;15.89;56.50;100797.16;696542;28;69395;-63
2022/09/25 00:55:25;;;;;;;883.67;822.20;;;;;;;15.90;56.71;100803.47;693175;28;161650;-63
2022/09/25 00:55:46;;;;;;;909.40;847.10;;;;;;;15.87;56.48;100799.28;697539;28;44368;-63
2022/09/25 00:56:10;;;;;;;902.10;840.08;;;;;;;15.89;56.44;100802.63;698493;28;21556;-63
2022/09/25 00:56:34;;;;;;;897.45;835.55;;;;;;;15.89;56.50;100799.88;696645;28;69302;-63
2022/09/25 00:56:56;;;;;;;902.50;840.35;;;;;;;15.88;56.20;100802.81;694104;28;113655;-63
2022/09/25 00:57:19;;;;;;;914.00;851.20;;;;;;;15.87;56.27;100802.00;697242;28;46299;-63
2022/09/25 00:57:43;;;;;;;919.85;857.15;;;;;;;15.87;56.38;100802.00;696732;28;69446;-63
2022/09/25 00:58:05;;;;;;;913.70;851.22;;;;;;;15.86;56.41;100805.75;695869;28;93061;-63
2022/09/25 00:58:27;;;;;;;906.90;844.53;;;;;;;15.84;56.26;100800.53;697492;28;45253;-63
2022/09/25 00:58:48;;;;;;;908.17;845.85;;;;;;;15.87;56.39;100806.63;697564;28;46325;-63
2022/09/25 00:59:12;;;;;;;908.20;846.00;;;;;;;15.86;56.36;100800.31;698300;28;21541;-63
2022/09/25 00:59:37;;;;;;;907.78;845.63;;;;;;;15.85;56.50;100799.47;695823;28;92184;-63
2022/09/25 01:00:04;;;;;;;902.58;840.58;;;;;;;15.85;56.47;100804.94;695228;28;115335;-63
2022/09/25 01:00:25;;;;;;;916.13;853.58;;;;;;;15.85;56.63;100802.22;694392;28;136388;-63
2022/09/25 01:00:48;;;;;;;913.17;850.67;;;;;;;15.86;56.68;100800.31;697527;28;45139;-63
2022/09/25 01:01:11;;;;;;;923.85;861.15;;;;;;;15.86;56.63;100811.19;697421;28;45306;-63
2022/09/25 01:01:32;;;;;;;945.58;882.03;;;;;;;15.86;56.37;100803.03;696144;28;69437;-63
2022/09/25 01:01:54;;;;;;;946.05;882.45;;;;;;;15.85;56.65;100804.09;697655;28;22451;-63
2022/09/25 01:02:20;;;;;;;927.15;864.33;;;;;;;15.85;56.76;100809.56;697449;28;45229;-62
2022/09/25 01:02:45;;;;;;;867.30;806.20;;;;;;;15.82;56.72;100799.06;693572;28;159326;-63
2022/09/25 01:03:07;;;;;;;834.22;774.03;;;;;;;15.83;57.06;100798.00;694224;28;137986;-63
2022/09/25 01:03:28;;;;;;;841.92;781.55;;;;;;;15.83;56.93;100807.03;698175;28;21523;-63
2022/09/25 01:03:50;;;;;;;857.97;797.17;;;;;;;15.84;56.89;100807.88;698391;28;23512;-63
2022/09/25 01:04:12;;;;;;;872.00;810.88;;;;;;;15.85;56.79;100804.94;697550;28;46377;-63
2022/09/25 01:04:36;;;;;;;873.85;812.70;;;;;;;15.84;56.66;100807.88;699079;28;895;-63
2022/09/25 01:05:00;;;;;;;892.28;830.47;;;;;;;15.85;56.62;100810.38;695212;28;113692;-63
2022/09/25 01:05:25;;;;;;;893.60;831.80;;;;;;;15.83;56.78;100798.88;696711;28;67450;-63
2022/09/25 01:05:48;;;;;;;900.35;838.25;;;;;;;15.84;57.12;100807.88;695028;28;113985;-63
2022/09/25 01:06:11;;;;;;;887.30;825.63;;;;;;;15.84;56.70;100805.97;696754;28;69531;-63
2022/09/25 01:06:33;;;;;;;885.30;823.67;;;;;;;15.85;57.03;100799.47;695559;28;93264;-62
2022/09/25 01:06:55;;;;;;;911.83;849.33;;;;;;;15.84;57.07;100800.53;696379;28;46268;-63
2022/09/25 01:07:18;;;;;;;946.45;882.63;;;;;;;15.85;56.78;100806.81;697274;28;46294;-63
2022/09/25 01:07:42;;;;;;;932.85;869.67;;;;;;;15.85;56.95;100807.66;697401;28;44150;-63
2022/09/25 01:08:04;;;;;;;899.85;837.70;;;;;;;15.85;56.73;100810.38;695784;28;92089;-63
2022/09/25 01:08:28;;;;;;;871.28;809.95;;;;;;;15.85;56.62;100807.66;696300;28;67620;-63
2022/09/25 01:08:49;;;;;;;842.90;782.38;;;;;;;15.84;56.86;100805.13;695419;28;90727;-63
2022/09/25 01:09:10;;;;;;;845.25;784.88;;;;;;;15.83;56.77;100804.31;698282;28;23392;-63
2022/09/25 01:09:32;;;;;;;849.30;788.95;;;;;;;15.83;56.65;100804.31;697973;28;22253;-63
2022/09/25 01:10:01;;;;;;;869.90;808.88;;;;;;;15.83;56.70;100806.19;698042;28;21908;-63
2022/09/25 01:10:23;;;;;;;882.92;821.53;;;;;;;15.82;56.75;100799.91;693948;28;137418;-63
2022/09/25 01:10:44;;;;;;;891.05;829.25;;;;;;;15.82;57.13;100808.06;697274;28;44397;-63
2022/09/25 01:11:06;;;;;;;879.45;818.05;;;;;;;15.81;56.95;100800.94;697442;28;21402;-63
2022/09/25 01:11:29;;;;;;;884.03;822.53;;;;;;;15.82;56.78;100801.81;697232;28;22401;-62
2022/09/25 01:11:51;;;;;;;899.15;837.15;;;;;;;15.79;57.02;100797.59;691656;28;92289;-63
2022/09/25 01:12:12;;;;;;;903.05;840.95;;;;;;;15.79;56.70;100803.03;693386;28;23475;-63
2022/09/25 01:12:35;;;;;;;904.97;842.90;;;;;;;15.80;56.94;100803.91;694331;28;46557;-62
2022/09/25 01:12:57;;;;;;;916.38;853.88;;;;;;;15.80;56.78;100799.28;693716;28;67255;-63
2022/09/25 01:13:20;;;;;;;923.03;860.25;;;;;;;15.79;57.08;100794.03;694267;28;22418;-62
2022/09/25 01:13:41;;;;;;;930.13;867.10;;;;;;;15.80;57.01;100803.91;690362;28;93012;-63
2022/09/25 01:14:04;;;;;;;930.97;867.92;;;;;;;15.78;57.00;100804.13;692630;28;23383;-63
2022/09/25 01:14:25;;;;;;;922.53;859.70;;;;;;;15.80;56.69;100804.72;695047;28;1266;-62
2022/09/25 01:14:47;;;;;;;907.30;845.00;;;;;;;15.80;56.71;100804.72;695517;28;21531;-63
2022/09/25 01:15:10;;;;;;;897.90;836.03;;;;;;;15.80;57.03;100791.13;694755;28;46403;-63
2022/09/25 01:15:38;;;;;;;889.97;828.42;;;;;;;15.81;56.78;100792.78;693945;28;67241;-63
2022/09/25 01:16:07;;;;;;;905.47;843.38;;;;;;;15.80;56.55;100795.72;691477;28;136546;-63
2022/09/25 01:16:36;;;;;;;926.33;863.53;;;;;;;15.80;56.84;100804.72;694198;28;60147;-63
2022/09/25 01:17:01;;;;;;;913.58;850.80;;;;;;;15.79;56.97;100800.31;691711;28;137892;-62
2022/09/25 01:17:27;;;;;;;919.78;856.88;;;;;;;15.80;57.03;100799.28;694869;28;115148;-63
2022/09/25 01:17:55;;;;;;;921.40;858.80;;;;;;;15.82;56.81;100802.63;691598;28;136394;-63
2022/09/25 01:18:25;;;;;;;910.15;847.90;;;;;;;15.82;56.82;100796.34;691319;28;137720;-63
2022/09/25 01:18:56;;;;;;;928.08;865.20;;;;;;;15.80;56.52;100793.00;690699;28;160834;-63
2022/09/25 01:19:25;;;;;;;935.45;872.45;;;;;;;15.82;56.44;100801.81;693132;28;136030;-63
2022/09/25 01:20:00;;;;;;;938.45;875.28;;;;;;;15.79;56.90;100797.59;694235;28;139056;-63
2022/09/25 01:20:35;;;;;;;880.45;819.15;;;;;;;15.79;56.85;100797.59;694162;28;137839;-63
2022/09/25 01:21:05;;;;;;;872.05;810.88;;;;;;;15.78;56.56;100795.94;694205;28;137505;-63
2022/09/25 01:21:37;;;;;;;866.13;805.13;;;;;;;15.78;56.48;100797.81;694111;28;137746;-62
2022/09/25 01:22:04;;;;;;;883.28;821.58;;;;;;;15.78;56.74;100798.66;692128;28;137815;-63
2022/09/25 01:22:35;;;;;;;880.25;818.78;;;;;;;15.77;56.61;100796.16;690477;28;161036;-63
2022/09/25 01:23:03;;;;;;;887.88;826.15;;;;;;;15.79;56.90;100794.03;690717;28;160448;-63
2022/09/25 01:23:33;;;;;;;894.97;833.10;;;;;;;15.79;56.75;100791.31;690726;28;159131;-63
2022/09/25 01:24:11;;;;;;;897.30;835.35;;;;;;;15.79;56.67;100794.88;690855;28;160693;-62
2022/09/25 01:24:47;;;;;;;850.47;789.80;;;;;;;15.77;56.56;100791.53;688590;28;137535;-63
2022/09/25 01:25:13;;;;;;;837.88;777.47;;;;;;;15.80;56.82;100798.47;688078;28;160628;-63
2022/09/25 01:25:49;;;;;;;853.95;793.20;;;;;;;15.81;56.79;100797.38;688853;28;136058;-63
2022/09/25 01:26:24;;;;;;;867.78;806.70;;;;;;;15.80;56.45;100790.28;691543;28;136014;-63
2022/09/25 01:27:18;;;;;;;901.35;838.60;;;;;;;15.82;56.82;100799.06;689604;28;135889;-63
2022/09/25 01:27:57;;;;;;;907.05;844.78;;;;;;;15.82;56.92;100793.63;687355;28;156095;-63
2022/09/25 01:28:42;;;;;;;910.45;848.05;;;;;;;15.80;56.56;100801.19;690266;28;158927;-63
2022/09/25 01:29:10;;;;;;;926.78;863.67;;;;;;;15.79;56.93;100797.59;689113;28;135993;-62
2022/09/25 01:29:36;;;;;;;927.78;864.78;;;;;;;15.82;56.83;100799.06;691362;28;138776;-63
2022/09/25 01:30:05;;;;;;;925.92;862.90;;;;;;;15.82;56.47;100793.63;689660;28;160920;-63
2022/09/25 01:30:27;;;;;;;924.65;861.85;;;;;;;15.82;56.75;100793.63;691211;28;138035;-63
2022/09/25 01:30:52;;;;;;;922.42;859.65;;;;;;;15.82;56.48;100802.63;694604;28;46385;-63
2022/09/25 01:31:18;;;;;;;921.70;859.17;;;;;;;15.82;56.69;100790.91;693080;28;92330;-62
2022/09/25 01:31:42;;;;;;;905.97;843.65;;;;;;;15.82;56.61;100799.06;691837;28;124885;-63
2022/09/25 01:32:09;;;;;;;899.75;837.65;;;;;;;15.81;56.82;100798.22;694525;28;92130;-62
2022/09/25 01:32:35;;;;;;;890.40;828.63;;;;;;;15.80;57.08;100804.72;693399;28;161110;-62
2022/09/25 01:33:02;;;;;;;887.53;825.78;;;;;;;15.79;56.77;100794.03;694113;28;138927;-62
2022/09/25 01:33:25;;;;;;;891.85;829.97;;;;;;;15.78;56.95;100803.25;691276;28;136357;-62
2022/09/25 01:33:51;;;;;;;904.67;842.47;;;;;;;15.77;56.76;100798.88;695112;28;69232;-62
2022/09/25 01:34:14;;;;;;;926.33;863.40;;;;;;;15.76;56.92;100792.53;693813;28;137739;-63
2022/09/25 01:34:39;;;;;;;913.92;851.47;;;;;;;15.75;57.15;100796.34;696639;28;68351;-63
2022/09/25 01:35:04;;;;;;;897.72;835.90;;;;;;;15.77;56.63;100799.69;695247;28;109596;-62
2022/09/25 01:35:33;;;;;;;886.65;824.78;;;;;;;15.75;57.04;100796.34;692554;28;137932;-62
2022/09/25 01:35:58;;;;;;;874.22;813.03;;;;;;;15.75;56.99;100792.75;694164;28;137687;-63
2022/09/25 01:36:25;;;;;;;886.95;825.45;;;;;;;15.75;56.77;100796.34;694776;28;115181;-63
2022/09/25 01:36:49;;;;;;;892.88;831.20;;;;;;;15.74;56.77;100797.38;694099;28;136299;-63
2022/09/25 01:37:16;;;;;;;923.03;859.97;;;;;;;15.74;57.03;100793.81;693914;28;111987;-63
2022/09/25 01:37:40;;;;;;;929.35;866.15;;;;;;;15.75;56.96;100803.66;694139;28;138367;-63
2022/09/25 01:38:07;;;;;;;919.13;856.47;;;;;;;15.75;56.86;100799.06;693099;28;92140;-63
2022/09/25 01:38:32;;;;;;;924.50;861.70;;;;;;;15.74;56.91;100794.66;692626;28;138299;-63
2022/09/25 01:38:57;;;;;;;927.83;864.83;;;;;;;15.74;57.06;100791.09;693856;28;138041;-63
2022/09/25 01:39:20;;;;;;;907.67;845.42;;;;;;;15.74;57.14;100797.38;693690;28;139438;-63
2022/09/25 01:39:45;;;;;;;912.20;849.78;;;;;;;15.73;57.08;100795.69;694029;28;70135;-62
2022/09/25 01:40:14;;;;;;;912.28;849.90;;;;;;;15.73;57.00;100795.69;694717;28;116126;-63
2022/09/25 01:40:42;;;;;;;900.90;838.90;;;;;;;15.75;56.96;100796.34;693947;28;135585;-63
2022/09/25 01:41:07;;;;;;;912.95;850.63;;;;;;;15.75;57.27;100790.88;692483;28;114550;-63
2022/09/25 01:41:34;;;;;;;888.63;827.13;;;;;;;15.75;57.23;100792.75;694140;28;136104;-63
2022/09/25 01:41:59;;;;;;;903.30;841.20;;;;;;;15.73;57.21;100795.69;692853;28;159091;-62
2022/09/25 01:42:24;;;;;;;903.33;841.13;;;;;;;15.72;57.15;100794.03;695596;28;93595;-63
2022/09/25 01:42:48;;;;;;;897.55;835.55;;;;;;;15.73;56.90;100792.13;697586;28;115124;-63
2022/09/25 01:43:12;;;;;;;903.60;841.42;;;;;;;15.71;57.18;100792.34;697516;28;90723;-62
2022/09/25 01:43:37;;;;;;;898.60;836.53;;;;;;;15.73;57.24;100790.22;695493;28;114818;-62
2022/09/25 01:43:59;;;;;;;927.25;864.25;;;;;;;15.73;57.19;100783.97;694592;28;115098;-62
2022/09/25 01:44:27;;;;;;;934.10;870.75;;;;;;;15.74;57.32;100789.19;695501;28;33685;-62
2022/09/25 01:44:52;;;;;;;923.03;860.13;;;;;;;15.73;57.09;100789.41;693247;28;137640;-62
2022/09/25 01:45:17;;;;;;;906.10;843.75;;;;;;;15.72;57.55;100788.59;695806;28;93020;-62
2022/09/25 01:45:42;;;;;;;914.05;851.50;;;;;;;15.74;57.16;100783.75;694128;28;137749;-62
2022/09/25 01:46:06;;;;;;;924.15;861.25;;;;;;;15.71;57.20;100780.63;695791;28;92137;-63
2022/09/25 01:46:30;;;;;;;935.33;872.03;;;;;;;15.72;57.20;100785.84;695660;28;92122;-62
2022/09/25 01:46:53;;;;;;;909.97;847.40;;;;;;;15.70;57.26;100785.22;694195;28;92247;-62
2022/09/25 01:47:21;;;;;;;918.28;855.25;;;;;;;15.74;57.12;100789.19;693474;28;69393;-62
2022/09/25 01:47:47;;;;;;;921.20;858.33;;;;;;;15.72;57.29;100795.88;694153;28;59247;-63
2022/09/25 01:48:09;;;;;;;923.95;861.10;;;;;;;15.73;57.10;100787.50;691347;28;137785;-61
2022/09/25 01:48:33;;;;;;;912.30;849.90;;;;;;;15.73;57.36;100784.78;693700;28;68342;-63
2022/09/25 01:48:56;;;;;;;927.45;864.45;;;;;;;15.73;56.92;100789.41;692905;28;92245;-62
2022/09/25 01:49:21;;;;;;;927.15;864.25;;;;;;;15.72;57.29;100791.31;693703;28;67396;-62
2022/09/25 01:49:46;;;;;;;918.38;855.63;;;;;;;15.72;57.15;100783.13;692808;28;113601;-62